createdAt,value
2019-01-15T00:00:08.085Z,966.37
2019-01-15T00:01:09.410Z,966.36
2019-01-15T00:02:07.960Z,966.36
2019-01-15T00:03:07.899Z,966.36
2019-01-15T00:04:07.839Z,966.46
2019-01-15T00:05:07.806Z,966.40
2019-01-15T00:06:07.783Z,966.41
2019-01-15T00:07:07.666Z,966.45
2019-01-15T00:08:07.634Z,966.41
2019-01-15T00:09:07.557Z,966.46
2019-01-15T00:10:07.480Z,966.48
2019-01-15T00:11:07.456Z,966.53
2019-01-15T00:12:07.923Z,966.48
2019-01-15T00:13:07.337Z,966.50
2019-01-15T00:14:07.245Z,966.50
2019-01-15T00:15:07.188Z,966.54
2019-01-15T00:16:07.237Z,966.60
2019-01-15T00:17:07.068Z,966.57
2019-01-15T00:18:07.011Z,966.59
2019-01-15T00:19:06.945Z,966.61
2019-01-15T00:20:06.894Z,966.62
2019-01-15T00:21:06.877Z,966.62
2019-01-15T00:22:06.769Z,966.61
2019-01-15T00:23:06.709Z,966.65
2019-01-15T00:24:06.652Z,966.63
2019-01-15T00:25:06.591Z,966.64
2019-01-15T00:26:06.563Z,966.63
2019-01-15T00:27:06.472Z,966.61
2019-01-15T00:28:06.410Z,966.66
2019-01-15T00:29:06.355Z,966.64
2019-01-15T00:30:06.291Z,966.64
2019-01-15T00:31:06.266Z,966.67
2019-01-15T00:32:06.203Z,966.68
2019-01-15T00:33:06.123Z,966.68
2019-01-15T00:34:06.052Z,966.71
2019-01-15T00:35:05.998Z,966.74
2019-01-15T00:36:05.931Z,966.73
2019-01-15T00:37:05.907Z,966.70
2019-01-15T00:38:05.849Z,966.69
2019-01-15T00:39:05.758Z,966.78
2019-01-15T00:40:05.704Z,966.76
2019-01-15T00:41:05.679Z,966.75
2019-01-15T00:42:05.576Z,966.76
2019-01-15T00:43:05.558Z,966.80
2019-01-15T00:44:05.488Z,966.80
2019-01-15T00:45:05.396Z,966.83
2019-01-15T00:46:05.341Z,966.81
2019-01-15T00:47:05.284Z,966.81
2019-01-15T00:48:05.250Z,966.83
2019-01-15T00:49:05.157Z,966.87
2019-01-15T00:50:05.129Z,966.91
2019-01-15T00:51:05.046Z,966.91
2019-01-15T00:52:04.988Z,966.95
2019-01-15T00:53:04.951Z,966.89
2019-01-15T00:54:04.858Z,966.95
2019-01-15T00:55:04.803Z,966.99
2019-01-15T00:56:04.742Z,967.01
2019-01-15T00:57:04.680Z,967.06
2019-01-15T00:58:04.653Z,967.04
2019-01-15T00:59:04.566Z,967.07
2019-01-15T01:00:04.503Z,967.09
2019-01-15T01:01:04.444Z,967.08
2019-01-15T01:02:04.380Z,967.12
2019-01-15T01:03:04.356Z,967.24
2019-01-15T01:04:04.262Z,967.12
2019-01-15T01:05:04.203Z,967.15
2019-01-15T01:06:04.237Z,967.15
2019-01-15T01:07:04.085Z,967.23
2019-01-15T01:08:04.020Z,967.22
2019-01-15T01:09:04.015Z,967.20
2019-01-15T01:10:03.904Z,967.20
2019-01-15T01:11:03.843Z,967.31
2019-01-15T01:12:03.783Z,967.21
2019-01-15T01:13:03.732Z,967.16
2019-01-15T01:14:03.707Z,967.22
2019-01-15T01:15:03.623Z,967.24
2019-01-15T01:16:03.557Z,967.20
2019-01-15T01:17:03.489Z,967.28
2019-01-15T01:18:03.466Z,967.27
2019-01-15T01:19:03.369Z,967.27
2019-01-15T01:20:03.342Z,967.27
2019-01-15T01:21:03.246Z,967.31
2019-01-15T01:22:03.207Z,967.26
2019-01-15T01:23:03.129Z,967.28
2019-01-15T01:24:03.100Z,967.31
2019-01-15T01:25:03.007Z,967.26
2019-01-15T01:26:02.955Z,967.25
2019-01-15T01:27:02.887Z,967.31
2019-01-15T01:28:02.827Z,967.31
2019-01-15T01:29:02.801Z,967.30
2019-01-15T01:30:02.710Z,967.30
2019-01-15T01:31:02.658Z,967.33
2019-01-15T01:32:02.593Z,967.36
2019-01-15T01:33:02.528Z,967.36
2019-01-15T01:34:02.508Z,967.41
2019-01-15T01:35:02.444Z,967.40
2019-01-15T01:36:02.350Z,967.42
2019-01-15T01:37:02.291Z,967.37
2019-01-15T01:38:02.231Z,967.35
2019-01-15T01:39:02.174Z,967.35
2019-01-15T01:40:02.166Z,967.33
2019-01-15T01:41:02.060Z,967.35
2019-01-15T01:42:01.993Z,967.39
2019-01-15T01:43:01.939Z,967.40
2019-01-15T01:44:01.873Z,967.40
2019-01-15T01:45:01.860Z,967.42
2019-01-15T01:46:01.764Z,967.45
2019-01-15T01:47:01.697Z,967.44
2019-01-15T01:48:01.700Z,967.48
2019-01-15T01:49:01.581Z,967.48
2019-01-15T01:50:01.513Z,967.50
2019-01-15T01:51:01.459Z,967.48
2019-01-15T01:52:01.395Z,967.51
2019-01-15T01:53:01.371Z,967.43
2019-01-15T01:54:01.283Z,967.47
2019-01-15T01:55:01.221Z,967.47
2019-01-15T01:56:01.161Z,967.47
2019-01-15T01:57:01.096Z,967.38
2019-01-15T01:58:01.065Z,967.43
2019-01-15T01:59:00.980Z,967.45
2019-01-15T02:00:00.918Z,967.44
2019-01-15T02:01:00.857Z,967.44
2019-01-15T02:02:00.830Z,967.49
2019-01-15T02:03:00.771Z,967.45
2019-01-15T02:04:00.686Z,967.48
2019-01-15T02:05:00.619Z,967.50
2019-01-15T02:06:00.594Z,967.49
2019-01-15T02:07:00.501Z,967.49
2019-01-15T02:08:00.439Z,967.50
2019-01-15T02:09:00.390Z,967.56
2019-01-15T02:10:00.327Z,967.55
2019-01-15T02:11:00.303Z,967.50
2019-01-15T02:12:00.229Z,967.51
2019-01-15T02:13:00.146Z,967.52
2019-01-15T02:14:00.119Z,967.50
2019-01-15T02:15:00.026Z,967.54
2019-01-15T02:15:59.967Z,967.48
2019-01-15T02:16:59.902Z,967.51
2019-01-15T02:17:59.878Z,967.52
2019-01-15T02:18:59.787Z,967.50
2019-01-15T02:19:59.724Z,967.56
2019-01-15T02:20:59.665Z,967.60
2019-01-15T02:21:59.643Z,967.54
2019-01-15T02:22:59.562Z,967.51
2019-01-15T02:23:59.490Z,967.53
2019-01-15T02:24:59.460Z,967.49
2019-01-15T02:25:59.366Z,967.55
2019-01-15T02:26:59.307Z,967.45
2019-01-15T02:27:59.287Z,967.55
2019-01-15T02:28:59.189Z,967.54
2019-01-15T02:29:59.138Z,967.61
2019-01-15T02:30:59.070Z,967.59
2019-01-15T02:31:59.016Z,967.53
2019-01-15T02:32:58.984Z,967.46
2019-01-15T02:33:58.891Z,967.49
2019-01-15T02:34:58.835Z,967.49
2019-01-15T02:35:58.770Z,967.48
2019-01-15T02:36:58.711Z,967.45
2019-01-15T02:37:58.681Z,967.52
2019-01-15T02:38:58.594Z,967.52
2019-01-15T02:39:58.562Z,967.53
2019-01-15T02:40:58.469Z,967.57
2019-01-15T02:41:58.415Z,967.62
2019-01-15T02:42:58.388Z,967.62
2019-01-15T02:43:58.291Z,967.66
2019-01-15T02:44:58.234Z,967.64
2019-01-15T02:45:58.222Z,967.66
2019-01-15T02:46:58.117Z,967.70
2019-01-15T02:47:58.058Z,967.78
2019-01-15T02:48:57.991Z,967.74
2019-01-15T02:49:57.934Z,967.69
2019-01-15T02:50:57.907Z,967.70
2019-01-15T02:51:57.826Z,967.71
2019-01-15T02:52:57.759Z,967.72
2019-01-15T02:53:58.892Z,967.68
2019-01-15T02:54:57.645Z,967.71
2019-01-15T02:55:57.614Z,967.69
2019-01-15T02:56:57.520Z,967.67
2019-01-15T02:57:57.456Z,967.63
2019-01-15T02:58:57.406Z,967.71
2019-01-15T02:59:57.335Z,967.68
2019-01-15T03:00:57.333Z,967.68
2019-01-15T03:01:57.220Z,967.59
2019-01-15T03:02:57.159Z,967.66
2019-01-15T03:03:57.102Z,967.73
2019-01-15T03:04:57.040Z,967.74
2019-01-15T03:05:57.008Z,967.80
2019-01-15T03:06:56.917Z,967.80
2019-01-15T03:07:56.889Z,967.83
2019-01-15T03:08:56.799Z,967.72
2019-01-15T03:09:56.736Z,967.81
2019-01-15T03:10:56.713Z,967.78
2019-01-15T03:11:56.661Z,967.81
2019-01-15T03:12:57.067Z,967.84
2019-01-15T03:13:56.507Z,967.76
2019-01-15T03:14:56.452Z,967.78
2019-01-15T03:15:56.411Z,967.80
2019-01-15T03:16:56.326Z,967.80
2019-01-15T03:17:56.259Z,967.84
2019-01-15T03:18:56.203Z,967.81
2019-01-15T03:19:56.172Z,967.85
2019-01-15T03:20:56.086Z,967.87
2019-01-15T03:21:56.027Z,967.86
2019-01-15T03:22:55.959Z,967.85
2019-01-15T03:23:55.936Z,967.84
2019-01-15T03:24:55.840Z,967.83
2019-01-15T03:25:55.780Z,967.77
2019-01-15T03:26:55.752Z,967.77
2019-01-15T03:27:55.661Z,967.74
2019-01-15T03:28:55.598Z,967.73
2019-01-15T03:29:55.540Z,967.75
2019-01-15T03:30:55.500Z,967.73
2019-01-15T03:31:55.454Z,967.77
2019-01-15T03:32:55.373Z,967.79
2019-01-15T03:33:55.336Z,967.75
2019-01-15T03:34:55.240Z,967.75
2019-01-15T03:35:55.193Z,967.79
2019-01-15T03:36:55.122Z,967.79
2019-01-15T03:37:55.107Z,967.74
2019-01-15T03:38:55.005Z,967.77
2019-01-15T03:39:54.943Z,967.73
2019-01-15T03:40:54.931Z,967.71
2019-01-15T03:41:54.826Z,967.71
2019-01-15T03:43:03.037Z,967.73
2019-01-15T03:43:54.703Z,967.73
2019-01-15T03:44:54.642Z,967.71
2019-01-15T03:45:54.620Z,967.74
2019-01-15T03:46:54.525Z,967.70
2019-01-15T03:47:54.462Z,967.66
2019-01-15T03:48:54.405Z,967.73
2019-01-15T03:49:54.347Z,967.70
2019-01-15T03:50:54.311Z,967.71
2019-01-15T03:51:54.228Z,967.75
2019-01-15T03:52:54.201Z,967.67
2019-01-15T03:53:54.110Z,967.65
2019-01-15T03:54:54.043Z,967.68
2019-01-15T03:55:54.018Z,967.71
2019-01-15T03:56:53.929Z,967.73
2019-01-15T03:57:53.865Z,967.78
2019-01-15T03:58:53.824Z,967.81
2019-01-15T03:59:53.749Z,967.78
2019-01-15T04:00:53.722Z,967.75
2019-01-15T04:01:53.629Z,967.73
2019-01-15T04:02:53.568Z,967.74
2019-01-15T04:03:53.520Z,967.76
2019-01-15T04:04:53.483Z,967.79
2019-01-15T04:05:53.388Z,967.81
2019-01-15T04:06:53.344Z,967.83
2019-01-15T04:07:53.269Z,967.86
2019-01-15T04:08:53.239Z,967.84
2019-01-15T04:09:53.160Z,967.82
2019-01-15T04:10:53.093Z,967.91
2019-01-15T04:11:53.030Z,967.88
2019-01-15T04:12:53.003Z,967.92
2019-01-15T04:13:52.916Z,967.89
2019-01-15T04:14:52.849Z,967.92
2019-01-15T04:15:52.801Z,967.92
2019-01-15T04:16:52.729Z,967.95
2019-01-15T04:17:52.708Z,967.95
2019-01-15T04:18:52.616Z,967.95
2019-01-15T04:19:52.548Z,967.98
2019-01-15T04:20:52.500Z,968.02
2019-01-15T04:21:52.430Z,968.01
2019-01-15T04:22:52.403Z,968.07
2019-01-15T04:23:52.324Z,968.13
2019-01-15T04:24:52.252Z,968.13
2019-01-15T04:25:52.190Z,968.10
2019-01-15T04:26:52.172Z,968.09
2019-01-15T04:27:52.092Z,968.15
2019-01-15T04:28:52.064Z,968.13
2019-01-15T04:29:51.956Z,968.08
2019-01-15T04:30:51.899Z,968.08
2019-01-15T04:31:51.831Z,968.10
2019-01-15T04:32:51.778Z,968.14
2019-01-15T04:33:51.754Z,968.16
2019-01-15T04:34:51.653Z,968.17
2019-01-15T04:35:51.595Z,968.14
2019-01-15T04:36:51.531Z,968.15
2019-01-15T04:37:51.470Z,968.15
2019-01-15T04:38:51.458Z,968.16
2019-01-15T04:39:51.352Z,968.13
2019-01-15T04:40:51.291Z,968.14
2019-01-15T04:41:51.232Z,968.14
2019-01-15T04:42:51.199Z,968.14
2019-01-15T04:43:51.146Z,968.12
2019-01-15T04:44:51.085Z,968.11
2019-01-15T04:45:50.996Z,968.12
2019-01-15T04:46:50.934Z,968.10
2019-01-15T04:47:50.894Z,968.06
2019-01-15T04:48:50.815Z,968.03
2019-01-15T04:49:50.784Z,968.02
2019-01-15T04:50:50.726Z,968.00
2019-01-15T04:51:50.668Z,968.05
2019-01-15T04:52:50.590Z,968.07
2019-01-15T04:53:50.518Z,968.02
2019-01-15T04:54:50.455Z,968.04
2019-01-15T04:55:50.400Z,968.00
2019-01-15T04:56:50.385Z,968.04
2019-01-15T04:57:50.277Z,968.02
2019-01-15T04:58:50.219Z,967.99
2019-01-15T04:59:50.158Z,967.99
2019-01-15T05:00:50.101Z,967.96
2019-01-15T05:01:50.083Z,967.94
2019-01-15T05:02:49.979Z,967.92
2019-01-15T05:03:49.930Z,967.94
2019-01-15T05:04:49.859Z,967.91
2019-01-15T05:05:49.830Z,967.93
2019-01-15T05:06:49.776Z,967.94
2019-01-15T05:07:49.681Z,967.94
2019-01-15T05:08:49.641Z,967.91
2019-01-15T05:09:49.596Z,967.89
2019-01-15T05:10:49.611Z,967.96
2019-01-15T05:11:49.474Z,967.91
2019-01-15T05:12:49.424Z,967.93
2019-01-15T05:13:49.326Z,967.92
2019-01-15T05:14:49.262Z,967.90
2019-01-15T05:15:49.205Z,967.85
2019-01-15T05:16:49.174Z,967.85
2019-01-15T05:17:49.081Z,967.90
2019-01-15T05:18:49.033Z,967.90
2019-01-15T05:19:48.964Z,967.89
2019-01-15T05:20:48.907Z,967.90
2019-01-15T05:21:48.877Z,967.89
2019-01-15T05:22:48.811Z,967.91
2019-01-15T05:23:48.741Z,967.89
2019-01-15T05:24:48.682Z,967.90
2019-01-15T05:25:48.654Z,967.89
2019-01-15T05:26:48.550Z,967.89
2019-01-15T05:27:48.492Z,967.90
2019-01-15T05:28:48.462Z,967.97
2019-01-15T05:29:48.372Z,967.89
2019-01-15T05:30:48.341Z,967.95
2019-01-15T05:31:48.250Z,967.96
2019-01-15T05:32:48.195Z,967.84
2019-01-15T05:33:48.156Z,967.85
2019-01-15T05:34:48.090Z,967.86
2019-01-15T05:35:48.015Z,967.85
2019-01-15T05:36:47.950Z,967.87
2019-01-15T05:37:47.923Z,967.90
2019-01-15T05:38:47.868Z,967.86
2019-01-15T05:39:47.773Z,967.75
2019-01-15T05:40:47.746Z,967.82
2019-01-15T05:41:47.656Z,967.77
2019-01-15T05:42:47.593Z,967.78
2019-01-15T05:43:47.536Z,967.76
2019-01-15T05:44:47.552Z,967.74
2019-01-15T05:45:47.454Z,967.70
2019-01-15T05:46:47.359Z,967.73
2019-01-15T05:47:47.296Z,967.67
2019-01-15T05:48:47.237Z,967.74
2019-01-15T05:49:47.220Z,967.70
2019-01-15T05:50:47.131Z,967.72
2019-01-15T05:51:47.058Z,967.72
2019-01-15T05:52:46.997Z,967.66
2019-01-15T05:53:46.954Z,967.66
2019-01-15T05:54:46.914Z,967.72
2019-01-15T05:55:46.854Z,967.64
2019-01-15T05:56:46.780Z,967.67
2019-01-15T05:57:46.697Z,967.69
2019-01-15T05:58:46.653Z,967.65
2019-01-15T05:59:46.627Z,967.62
2019-01-15T06:00:46.528Z,967.64
2019-01-15T06:01:46.466Z,967.63
2019-01-15T06:02:46.402Z,967.58
2019-01-15T06:03:46.348Z,967.64
2019-01-15T06:04:46.312Z,967.58
2019-01-15T06:05:46.223Z,967.55
2019-01-15T06:06:46.187Z,967.63
2019-01-15T06:07:46.101Z,967.64
2019-01-15T06:08:46.073Z,967.63
2019-01-15T06:09:46.013Z,967.58
2019-01-15T06:10:45.952Z,967.64
2019-01-15T06:11:45.870Z,967.70
2019-01-15T06:12:45.803Z,967.70
2019-01-15T06:13:45.749Z,967.73
2019-01-15T06:14:45.692Z,967.61
2019-01-15T06:15:45.664Z,967.69
2019-01-15T06:16:45.568Z,967.70
2019-01-15T06:17:45.514Z,967.67
2019-01-15T06:18:45.451Z,967.70
2019-01-15T06:19:45.387Z,967.65
2019-01-15T06:20:45.363Z,967.65
2019-01-15T06:21:45.275Z,967.58
2019-01-15T06:22:45.213Z,967.53
2019-01-15T06:23:45.195Z,967.59
2019-01-15T06:24:45.095Z,967.61
2019-01-15T06:25:45.065Z,967.58
2019-01-15T06:26:44.996Z,967.44
2019-01-15T06:27:44.918Z,967.46
2019-01-15T06:28:44.853Z,967.43
2019-01-15T06:29:44.791Z,967.44
2019-01-15T06:30:44.780Z,967.48
2019-01-15T06:31:44.673Z,967.47
2019-01-15T06:32:44.610Z,967.43
2019-01-15T06:33:44.568Z,967.44
2019-01-15T06:34:44.507Z,967.43
2019-01-15T06:35:44.468Z,967.33
2019-01-15T06:36:44.776Z,967.38
2019-01-15T06:37:44.315Z,967.33
2019-01-15T06:38:44.254Z,967.38
2019-01-15T06:39:44.192Z,967.34
2019-01-15T06:40:44.135Z,967.34
2019-01-15T06:41:44.121Z,967.29
2019-01-15T06:42:44.018Z,967.34
2019-01-15T06:43:49.958Z,967.27
2019-01-15T06:44:43.902Z,967.35
2019-01-15T06:45:43.839Z,967.34
2019-01-15T06:46:43.813Z,967.33
2019-01-15T06:47:43.725Z,967.36
2019-01-15T06:48:43.668Z,967.34
2019-01-15T06:49:43.605Z,967.30
2019-01-15T06:50:43.549Z,967.39
2019-01-15T06:51:43.524Z,967.42
2019-01-15T06:52:43.447Z,967.39
2019-01-15T06:53:43.388Z,967.43
2019-01-15T06:54:43.320Z,967.45
2019-01-15T06:55:43.292Z,967.40
2019-01-15T06:56:43.196Z,967.46
2019-01-15T06:57:43.130Z,967.44
2019-01-15T06:58:43.079Z,967.45
2019-01-15T06:59:43.011Z,967.41
2019-01-15T07:00:42.993Z,967.50
2019-01-15T07:01:42.899Z,967.46
2019-01-15T07:02:42.828Z,967.47
2019-01-15T07:03:42.770Z,967.45
2019-01-15T07:04:43.989Z,967.52
2019-01-15T07:05:42.653Z,967.47
2019-01-15T07:06:42.593Z,967.51
2019-01-15T07:07:42.534Z,967.46
2019-01-15T07:08:42.508Z,967.52
2019-01-15T07:09:42.413Z,967.53
2019-01-15T07:10:42.390Z,967.57
2019-01-15T07:11:42.300Z,967.58
2019-01-15T07:12:42.234Z,967.51
2019-01-15T07:13:42.182Z,967.57
2019-01-15T07:14:42.123Z,967.57
2019-01-15T07:15:42.106Z,967.62
2019-01-15T07:16:41.995Z,967.58
2019-01-15T07:17:41.950Z,967.55
2019-01-15T07:18:41.876Z,967.60
2019-01-15T07:19:41.830Z,967.54
2019-01-15T07:20:41.806Z,967.48
2019-01-15T07:21:41.705Z,967.56
2019-01-15T07:22:41.646Z,967.58
2019-01-15T07:23:41.576Z,967.60
2019-01-15T07:24:41.508Z,967.64
2019-01-15T07:25:41.480Z,967.64
2019-01-15T07:26:41.390Z,967.64
2019-01-15T07:27:41.332Z,967.66
2019-01-15T07:28:41.274Z,967.62
2019-01-15T07:29:41.219Z,967.61
2019-01-15T07:30:41.193Z,967.51
2019-01-15T07:31:41.132Z,967.64
2019-01-15T07:32:41.032Z,967.64
2019-01-15T07:33:40.981Z,967.66
2019-01-15T07:34:40.921Z,967.59
2019-01-15T07:35:40.856Z,967.58
2019-01-15T07:36:40.838Z,967.62
2019-01-15T07:37:40.735Z,967.61
2019-01-15T07:38:40.674Z,967.58
2019-01-15T07:39:40.629Z,967.53
2019-01-15T07:40:40.559Z,967.55
2019-01-15T07:41:40.532Z,967.52
2019-01-15T07:42:40.441Z,967.51
2019-01-15T07:43:40.376Z,967.40
2019-01-15T07:44:40.326Z,967.45
2019-01-15T07:45:40.260Z,967.47
2019-01-15T07:46:40.237Z,967.51
2019-01-15T07:47:40.141Z,967.55
2019-01-15T07:48:40.116Z,967.54
2019-01-15T07:49:40.022Z,967.62
2019-01-15T07:50:40.013Z,967.78
2019-01-15T07:51:39.904Z,967.78
2019-01-15T07:52:39.847Z,967.79
2019-01-15T07:53:39.862Z,967.90
2019-01-15T07:54:39.757Z,967.91
2019-01-15T07:55:39.662Z,967.80
2019-01-15T07:56:39.635Z,967.91
2019-01-15T07:57:39.549Z,967.92
2019-01-15T07:58:39.486Z,967.81
2019-01-15T07:59:39.426Z,967.87
2019-01-15T08:00:39.370Z,967.90
2019-01-15T08:01:39.366Z,967.76
2019-01-15T08:02:39.251Z,967.85
2019-01-15T08:03:39.186Z,967.75
2019-01-15T08:04:39.136Z,967.71
2019-01-15T08:05:39.110Z,967.76
2019-01-15T08:06:39.009Z,967.75
2019-01-15T08:07:38.964Z,967.64
2019-01-15T08:08:38.890Z,967.68
2019-01-15T08:09:38.832Z,967.70
2019-01-15T08:10:38.801Z,967.57
2019-01-15T08:11:38.711Z,967.71
2019-01-15T08:12:38.651Z,967.63
2019-01-15T08:13:38.593Z,967.64
2019-01-15T08:14:38.566Z,967.69
2019-01-15T08:15:38.471Z,967.70
2019-01-15T08:16:38.536Z,967.67
2019-01-15T08:17:38.357Z,967.77
2019-01-15T08:18:38.294Z,967.79
2019-01-15T08:19:38.236Z,967.82
2019-01-15T08:20:38.185Z,967.75
2019-01-15T08:21:38.169Z,967.79
2019-01-15T08:22:38.063Z,967.92
2019-01-15T08:23:37.997Z,967.92
2019-01-15T08:24:37.943Z,967.82
2019-01-15T08:25:37.880Z,967.84
2019-01-15T08:26:37.861Z,967.90
2019-01-15T08:27:37.774Z,967.83
2019-01-15T08:28:37.701Z,967.82
2019-01-15T08:29:37.638Z,967.86
2019-01-15T08:30:37.592Z,967.82
2019-01-15T08:31:37.553Z,967.90
2019-01-15T08:32:37.464Z,967.92
2019-01-15T08:33:37.400Z,967.91
2019-01-15T08:34:37.374Z,967.91
2019-01-15T08:35:37.284Z,967.92
2019-01-15T08:36:37.251Z,967.97
2019-01-15T08:37:37.167Z,967.95
2019-01-15T08:38:37.148Z,967.96
2019-01-15T08:39:37.053Z,968.02
2019-01-15T08:40:36.987Z,968.03
2019-01-15T08:41:36.928Z,968.00
2019-01-15T08:42:36.871Z,968.11
2019-01-15T08:43:36.847Z,968.08
2019-01-15T08:44:36.754Z,968.08
2019-01-15T08:45:36.695Z,968.06
2019-01-15T08:46:36.629Z,967.99
2019-01-15T08:47:36.568Z,967.98
2019-01-15T08:48:36.549Z,968.02
2019-01-15T08:49:36.454Z,967.96
2019-01-15T08:50:36.427Z,967.93
2019-01-15T08:51:36.337Z,967.90
2019-01-15T08:52:36.270Z,967.80
2019-01-15T08:53:36.243Z,967.88
2019-01-15T08:54:36.154Z,967.77
2019-01-15T08:55:36.143Z,967.82
2019-01-15T08:56:36.039Z,967.81
2019-01-15T08:57:35.975Z,967.80
2019-01-15T08:58:35.919Z,967.79
2019-01-15T08:59:35.857Z,967.81
2019-01-15T09:00:35.832Z,967.83
2019-01-15T09:01:35.739Z,967.82
2019-01-15T09:02:35.681Z,967.79
2019-01-15T09:03:35.623Z,967.84
2019-01-15T09:04:35.568Z,967.85
2019-01-15T09:05:35.554Z,967.82
2019-01-15T09:06:35.438Z,967.81
2019-01-15T09:07:35.427Z,967.80
2019-01-15T09:08:35.320Z,967.82
2019-01-15T09:09:35.262Z,967.87
2019-01-15T09:10:35.200Z,967.83
2019-01-15T09:11:35.141Z,967.82
2019-01-15T09:12:35.122Z,967.78
2019-01-15T09:13:35.029Z,967.70
2019-01-15T09:14:34.979Z,967.67
2019-01-15T09:15:34.946Z,967.63
2019-01-15T09:16:34.844Z,967.64
2019-01-15T09:17:34.785Z,967.58
2019-01-15T09:18:34.727Z,967.55
2019-01-15T09:19:34.669Z,967.54
2019-01-15T09:20:34.638Z,967.56
2019-01-15T09:21:34.548Z,967.55
2019-01-15T09:22:34.498Z,967.56
2019-01-15T09:23:34.477Z,967.55
2019-01-15T09:24:34.373Z,967.60
2019-01-15T09:25:34.313Z,967.57
2019-01-15T09:26:34.260Z,967.54
2019-01-15T09:27:34.196Z,967.60
2019-01-15T09:28:34.176Z,967.69
2019-01-15T09:29:34.074Z,967.67
2019-01-15T09:30:34.050Z,967.71
2019-01-15T09:31:33.954Z,967.67
2019-01-15T09:32:33.895Z,967.70
2019-01-15T09:33:33.834Z,967.76
2019-01-15T09:34:33.775Z,967.80
2019-01-15T09:35:33.763Z,967.74
2019-01-15T09:36:33.662Z,967.75
2019-01-15T09:37:33.600Z,967.78
2019-01-15T09:38:33.541Z,967.79
2019-01-15T09:39:33.488Z,967.82
2019-01-15T09:40:33.453Z,967.79
2019-01-15T09:41:33.396Z,967.84
2019-01-15T09:42:33.301Z,967.83
2019-01-15T09:43:33.247Z,967.87
2019-01-15T09:44:34.222Z,967.85
2019-01-15T09:45:33.165Z,967.88
2019-01-15T09:46:33.103Z,967.86
2019-01-15T09:47:33.008Z,967.84
2019-01-15T09:48:32.945Z,967.85
2019-01-15T09:49:32.888Z,967.89
2019-01-15T09:50:32.828Z,967.79
2019-01-15T09:51:32.796Z,967.73
2019-01-15T09:52:33.678Z,967.74
2019-01-15T09:53:32.646Z,967.68
2019-01-15T09:54:32.587Z,967.67
2019-01-15T09:55:32.561Z,967.69
2019-01-15T09:56:32.470Z,967.68
2019-01-15T09:57:32.463Z,967.70
2019-01-15T09:58:32.365Z,967.70
2019-01-15T09:59:32.292Z,967.69
2019-01-15T10:00:32.236Z,967.63
2019-01-15T10:01:32.181Z,967.55
2019-01-15T10:02:32.164Z,967.56
2019-01-15T10:03:32.056Z,967.54
2019-01-15T10:04:31.995Z,967.54
2019-01-15T10:05:31.939Z,967.55
2019-01-15T10:06:31.880Z,967.53
2019-01-15T10:07:31.872Z,967.52
2019-01-15T10:08:31.757Z,967.50
2019-01-15T10:09:31.702Z,967.45
2019-01-15T10:10:31.637Z,967.45
2019-01-15T10:11:31.578Z,967.40
2019-01-15T10:12:31.571Z,967.36
2019-01-15T10:13:31.461Z,967.32
2019-01-15T10:14:31.408Z,967.28
2019-01-15T10:15:31.345Z,967.30
2019-01-15T10:16:31.315Z,967.26
2019-01-15T10:17:31.227Z,967.35
2019-01-15T10:18:31.225Z,967.28
2019-01-15T10:19:31.113Z,967.27
2019-01-15T10:20:31.049Z,967.34
2019-01-15T10:21:30.998Z,967.23
2019-01-15T10:22:30.925Z,967.22
2019-01-15T10:23:30.909Z,967.22
2019-01-15T10:24:30.810Z,967.15
2019-01-15T10:25:30.748Z,967.20
2019-01-15T10:26:30.694Z,967.20
2019-01-15T10:27:30.629Z,967.25
2019-01-15T10:28:30.603Z,967.29
2019-01-15T10:29:30.512Z,967.20
2019-01-15T10:30:30.453Z,967.27
2019-01-15T10:31:30.396Z,967.25
2019-01-15T10:32:30.376Z,967.24
2019-01-15T10:33:30.283Z,967.24
2019-01-15T10:34:30.250Z,967.26
2019-01-15T10:35:30.232Z,967.21
2019-01-15T10:36:30.097Z,967.24
2019-01-15T10:37:30.041Z,967.22
2019-01-15T10:38:30.008Z,967.27
2019-01-15T10:39:29.953Z,967.30
2019-01-15T10:40:31.061Z,967.30
2019-01-15T10:41:29.835Z,967.35
2019-01-15T10:42:29.743Z,967.34
2019-01-15T10:43:29.681Z,967.31
2019-01-15T10:44:29.627Z,967.37
2019-01-15T10:45:29.600Z,967.27
2019-01-15T10:46:32.048Z,967.32
2019-01-15T10:47:29.447Z,967.34
2019-01-15T10:48:29.397Z,967.35
2019-01-15T10:49:29.344Z,967.29
2019-01-15T10:50:29.305Z,967.27
2019-01-15T10:51:29.209Z,967.30
2019-01-15T10:52:29.194Z,967.32
2019-01-15T10:53:29.102Z,967.30
2019-01-15T10:54:29.035Z,967.29
2019-01-15T10:55:28.976Z,967.33
2019-01-15T10:56:28.949Z,967.29
2019-01-15T10:57:28.859Z,967.23
2019-01-15T10:58:28.806Z,967.28
2019-01-15T10:59:28.740Z,967.21
2019-01-15T11:00:28.690Z,967.26
2019-01-15T11:01:28.673Z,967.27
2019-01-15T11:02:28.566Z,967.30
2019-01-15T11:03:28.508Z,967.29
2019-01-15T11:04:28.449Z,967.24
2019-01-15T11:05:28.391Z,967.19
2019-01-15T11:06:28.364Z,967.28
2019-01-15T11:07:28.308Z,967.24
2019-01-15T11:08:28.215Z,967.18
2019-01-15T11:09:28.160Z,967.22
2019-01-15T11:10:28.095Z,967.23
2019-01-15T11:11:28.036Z,967.25
2019-01-15T11:12:28.027Z,967.21
2019-01-15T11:13:27.921Z,967.24
2019-01-15T11:14:27.866Z,967.16
2019-01-15T11:15:27.801Z,967.20
2019-01-15T11:16:27.744Z,967.15
2019-01-15T11:17:27.714Z,967.16
2019-01-15T11:18:27.625Z,967.12
2019-01-15T11:19:27.567Z,967.16
2019-01-15T11:20:27.511Z,967.19
2019-01-15T11:21:27.490Z,967.09
2019-01-15T11:22:27.391Z,967.11
2019-01-15T11:23:27.339Z,967.15
2019-01-15T11:24:27.272Z,967.07
2019-01-15T11:25:27.215Z,967.12
2019-01-15T11:26:27.183Z,967.08
2019-01-15T11:27:27.097Z,967.11
2019-01-15T11:28:27.039Z,967.07
2019-01-15T11:29:26.981Z,967.08
2019-01-15T11:30:26.948Z,967.08
2019-01-15T11:31:26.863Z,967.03
2019-01-15T11:32:26.803Z,967.06
2019-01-15T11:33:26.792Z,967.01
2019-01-15T11:34:26.704Z,966.99
2019-01-15T11:35:26.628Z,967.00
2019-01-15T11:36:26.573Z,967.03
2019-01-15T11:37:26.534Z,967.00
2019-01-15T11:38:26.450Z,966.95
2019-01-15T11:39:26.424Z,966.96
2019-01-15T11:40:26.331Z,966.90
2019-01-15T11:41:26.270Z,966.91
2019-01-15T11:42:26.224Z,966.84
2019-01-15T11:43:26.165Z,966.88
2019-01-15T11:44:26.131Z,966.98
2019-01-15T11:45:26.036Z,966.82
2019-01-15T11:46:25.986Z,966.81
2019-01-15T11:47:25.921Z,966.81
2019-01-15T11:48:25.868Z,966.81
2019-01-15T11:49:25.839Z,966.81
2019-01-15T11:50:25.869Z,966.79
2019-01-15T11:51:25.693Z,966.79
2019-01-15T11:52:25.630Z,966.74
2019-01-15T11:53:25.570Z,966.76
2019-01-15T11:54:25.509Z,966.77
2019-01-15T11:55:25.491Z,966.77
2019-01-15T11:56:25.448Z,966.75
2019-01-15T11:57:25.344Z,966.74
2019-01-15T11:58:25.278Z,966.74
2019-01-15T11:59:25.230Z,966.77
2019-01-15T12:00:25.199Z,966.78
2019-01-15T12:01:25.158Z,966.72
2019-01-15T12:02:25.049Z,966.66
2019-01-15T12:03:24.982Z,966.66
2019-01-15T12:04:24.931Z,966.75
2019-01-15T12:05:24.869Z,966.70
2019-01-15T12:06:24.865Z,966.67
2019-01-15T12:07:24.750Z,966.71
2019-01-15T12:08:24.718Z,966.73
2019-01-15T12:09:24.634Z,966.66
2019-01-15T12:10:24.597Z,966.69
2019-01-15T12:11:24.600Z,966.66
2019-01-15T12:12:24.479Z,966.64
2019-01-15T12:13:24.413Z,966.69
2019-01-15T12:14:24.343Z,966.60
2019-01-15T12:15:24.278Z,966.62
2019-01-15T12:16:24.256Z,966.63
2019-01-15T12:17:24.166Z,966.65
2019-01-15T12:18:24.106Z,966.62
2019-01-15T12:19:24.078Z,966.58
2019-01-15T12:20:23.994Z,966.58
2019-01-15T12:21:23.931Z,966.56
2019-01-15T12:22:23.893Z,966.63
2019-01-15T12:23:23.864Z,966.59
2019-01-15T12:24:23.795Z,966.58
2019-01-15T12:25:23.696Z,966.52
2019-01-15T12:26:23.640Z,966.54
2019-01-15T12:27:23.605Z,966.53